createdAt,value
2024-03-29T00:00:51.972Z,924.25
2024-03-29T00:01:52.890Z,924.26
2024-03-29T00:02:53.751Z,924.16
2024-03-29T00:03:54.472Z,924.19
2024-03-29T00:04:55.414Z,924.18
2024-03-29T00:05:55.689Z,924.12
2024-03-29T00:06:56.411Z,924.09
2024-03-29T00:07:57.175Z,924.03
2024-03-29T00:08:57.959Z,924.02
2024-03-29T00:09:58.864Z,924.07
2024-03-29T00:10:59.788Z,924.13
2024-03-29T00:12:00.516Z,924.14
2024-03-29T00:13:01.121Z,924.11
2024-03-29T00:14:01.944Z,924.08
2024-03-29T00:15:02.683Z,924.06
2024-03-29T00:16:03.179Z,924.07
2024-03-29T00:17:04.072Z,924.04
2024-03-29T00:18:04.767Z,923.96
2024-03-29T00:19:05.678Z,923.99
2024-03-29T00:20:06.477Z,923.95
2024-03-29T00:21:06.660Z,923.93
2024-03-29T00:22:07.615Z,923.85
2024-03-29T00:23:08.218Z,923.82
2024-03-29T00:24:08.726Z,923.84
2024-03-29T00:25:09.676Z,923.83
2024-03-29T00:26:10.390Z,923.74
2024-03-29T00:27:11.108Z,923.68
2024-03-29T00:28:11.799Z,923.65
2024-03-29T00:29:12.315Z,923.68
2024-03-29T00:30:12.824Z,923.72
2024-03-29T00:31:13.766Z,923.76
2024-03-29T00:32:14.850Z,923.72
2024-03-29T00:33:15.943Z,923.63
2024-03-29T00:34:16.525Z,923.61
2024-03-29T00:35:17.060Z,923.6
2024-03-29T00:36:18.042Z,923.64
2024-03-29T00:37:18.733Z,923.62
2024-03-29T00:38:19.364Z,923.62
2024-03-29T00:39:20.103Z,923.67
2024-03-29T00:40:21.026Z,923.69
2024-03-29T00:41:21.786Z,923.7
2024-03-29T00:42:22.507Z,923.68
2024-03-29T00:43:22.737Z,923.74
2024-03-29T00:44:23.421Z,923.69
2024-03-29T00:45:28.653Z,923.71
2024-03-29T00:46:25.023Z,923.65
2024-03-29T00:47:25.316Z,923.6
2024-03-29T00:48:26.335Z,923.71
2024-03-29T00:49:27.314Z,923.6
2024-03-29T00:50:27.829Z,923.62
2024-03-29T00:51:29.964Z,923.58
2024-03-29T00:52:29.084Z,923.58
2024-03-29T00:53:29.688Z,923.55
2024-03-29T00:54:30.612Z,923.58
2024-03-29T00:55:31.655Z,923.5
2024-03-29T00:56:31.766Z,923.52
2024-03-29T00:57:32.845Z,923.47
2024-03-29T00:58:33.546Z,923.48
2024-03-29T00:59:34.240Z,923.4
2024-03-29T01:00:34.762Z,923.37
2024-03-29T01:01:35.494Z,923.42
2024-03-29T01:02:36.499Z,923.28
2024-03-29T01:03:37.072Z,923.28
2024-03-29T01:04:37.351Z,923.31
2024-03-29T01:05:37.657Z,923.25
2024-03-29T01:06:37.797Z,923.27
2024-03-29T01:07:38.503Z,923.26
2024-03-29T01:08:39.031Z,923.24
2024-03-29T01:09:40.139Z,923.23
2024-03-29T01:10:40.846Z,923.16
2024-03-29T01:11:41.850Z,923.1
2024-03-29T01:12:42.779Z,923.08
2024-03-29T01:13:43.219Z,923.02
2024-03-29T01:14:43.983Z,923.03
2024-03-29T01:15:44.879Z,923.1
2024-03-29T01:16:45.032Z,923.07
2024-03-29T01:17:45.187Z,923.03
2024-03-29T01:18:45.927Z,923
2024-03-29T01:19:46.852Z,922.98
2024-03-29T01:20:47.571Z,922.88
2024-03-29T01:21:47.753Z,922.83
2024-03-29T01:22:48.652Z,922.83
2024-03-29T01:23:49.600Z,922.77
2024-03-29T01:24:50.373Z,922.81
2024-03-29T01:25:51.096Z,922.76
2024-03-29T01:26:51.988Z,922.6
2024-03-29T01:27:52.310Z,922.67
2024-03-29T01:28:53.032Z,922.71
2024-03-29T01:29:54.047Z,922.71
2024-03-29T01:30:54.946Z,922.72
2024-03-29T01:31:55.395Z,922.63
2024-03-29T01:32:56.331Z,922.57
2024-03-29T01:33:56.859Z,922.54
2024-03-29T01:34:57.829Z,922.49
2024-03-29T01:35:58.822Z,922.49
2024-03-29T01:36:59.020Z,922.51
2024-03-29T01:37:59.911Z,922.48
2024-03-29T01:39:00.284Z,922.46
2024-03-29T01:40:00.351Z,922.5
2024-03-29T01:41:00.481Z,922.42
2024-03-29T01:42:01.286Z,922.31
2024-03-29T01:43:02.248Z,922.31
2024-03-29T01:44:02.844Z,922.21
2024-03-29T01:45:02.955Z,922.23
2024-03-29T01:46:03.904Z,922.22
2024-03-29T01:47:04.627Z,922.21
2024-03-29T01:48:04.973Z,922.23
2024-03-29T01:49:05.916Z,922.21
2024-03-29T01:50:06.043Z,922.23
2024-03-29T01:51:06.782Z,922.18
2024-03-29T01:52:07.769Z,922.14
2024-03-29T01:53:08.317Z,922.07
2024-03-29T01:54:08.538Z,922.02
2024-03-29T01:55:09.259Z,921.99
2024-03-29T01:56:09.964Z,921.98
2024-03-29T01:57:10.071Z,922
2024-03-29T01:58:10.981Z,922.01
2024-03-29T01:59:11.487Z,922.03
2024-03-29T02:00:12.408Z,921.98
2024-03-29T02:01:12.708Z,921.95
2024-03-29T02:02:12.811Z,921.97
2024-03-29T02:03:13.740Z,922.05
2024-03-29T02:04:14.346Z,922.07
2024-03-29T02:05:14.860Z,922.06
2024-03-29T02:06:15.221Z,922.08
2024-03-29T02:07:16.171Z,922.1
2024-03-29T02:08:16.888Z,922.09
2024-03-29T02:09:17.058Z,922.12
2024-03-29T02:10:18.000Z,922.06
2024-03-29T02:11:18.913Z,922.08
2024-03-29T02:12:19.635Z,921.99
2024-03-29T02:13:20.347Z,922.07
2024-03-29T02:14:21.047Z,922.08
2024-03-29T02:15:22.013Z,922.02
2024-03-29T02:16:22.952Z,922.08
2024-03-29T02:17:23.730Z,922.11
2024-03-29T02:18:24.559Z,922.08
2024-03-29T02:19:24.689Z,922.07
2024-03-29T02:20:29.972Z,922.07
2024-03-29T02:21:26.018Z,922.06
2024-03-29T02:22:26.765Z,922.06
2024-03-29T02:23:26.910Z,922.08
2024-03-29T02:24:27.378Z,922.12
2024-03-29T02:25:27.522Z,922.06
2024-03-29T02:26:27.664Z,922.1
2024-03-29T02:27:28.231Z,921.97
2024-03-29T02:28:28.936Z,921.96
2024-03-29T02:29:29.707Z,922
2024-03-29T02:30:30.240Z,921.97
2024-03-29T02:31:30.522Z,922.03
2024-03-29T02:32:31.091Z,921.95
2024-03-29T02:33:31.983Z,921.91
2024-03-29T02:34:32.651Z,921.91
2024-03-29T02:35:33.385Z,921.88
2024-03-29T02:36:34.122Z,921.87
2024-03-29T02:37:34.256Z,921.87
2024-03-29T02:38:35.179Z,921.81
2024-03-29T02:39:36.149Z,921.88
2024-03-29T02:40:37.088Z,921.87
2024-03-29T02:41:37.203Z,921.87
2024-03-29T02:42:37.981Z,921.91
2024-03-29T02:43:38.467Z,921.9
2024-03-29T02:44:39.503Z,921.91
2024-03-29T02:45:40.205Z,921.94
2024-03-29T02:46:40.720Z,921.92
2024-03-29T02:47:41.627Z,921.99
2024-03-29T02:48:42.551Z,922.01
2024-03-29T02:49:43.270Z,922.03
2024-03-29T02:50:43.381Z,922.01
2024-03-29T02:51:43.505Z,921.99
2024-03-29T02:52:44.253Z,921.99
2024-03-29T02:53:44.556Z,922.02
2024-03-29T02:54:44.778Z,921.99
2024-03-29T02:55:45.496Z,921.97
2024-03-29T02:56:46.027Z,921.99
2024-03-29T02:57:46.728Z,921.96
2024-03-29T02:58:47.464Z,921.91
2024-03-29T02:59:48.235Z,921.85
2024-03-29T03:00:49.145Z,921.86
2024-03-29T03:01:50.027Z,921.88
2024-03-29T03:02:50.590Z,921.91
2024-03-29T03:03:50.733Z,921.95
2024-03-29T03:04:51.357Z,921.9
2024-03-29T03:05:51.522Z,921.92
2024-03-29T03:06:52.015Z,921.86
2024-03-29T03:07:52.179Z,921.87
2024-03-29T03:08:52.385Z,921.86
2024-03-29T03:09:52.882Z,921.84
2024-03-29T03:10:53.832Z,921.85
2024-03-29T03:11:54.482Z,921.9
2024-03-29T03:12:55.376Z,921.93
2024-03-29T03:13:55.757Z,921.9
2024-03-29T03:14:56.285Z,921.82
2024-03-29T03:15:56.654Z,921.76
2024-03-29T03:16:56.750Z,921.89
2024-03-29T03:17:57.791Z,921.87
2024-03-29T03:18:58.809Z,921.8
2024-03-29T03:19:57.980Z,921.79
2024-03-29T03:20:58.086Z,921.78
2024-03-29T03:21:58.982Z,921.87
2024-03-29T03:22:59.124Z,921.9
2024-03-29T03:23:59.254Z,921.83
2024-03-29T03:25:00.026Z,921.83
2024-03-29T03:26:00.522Z,921.82
2024-03-29T03:27:00.743Z,921.83
2024-03-29T03:28:00.944Z,921.81
2024-03-29T03:29:01.801Z,921.77
2024-03-29T03:30:02.755Z,921.67
2024-03-29T03:31:02.881Z,921.63
2024-03-29T03:32:03.602Z,921.61
2024-03-29T03:33:04.249Z,921.6
2024-03-29T03:34:04.468Z,921.59
2024-03-29T03:35:04.693Z,921.56
2024-03-29T03:36:05.654Z,921.51
2024-03-29T03:37:06.533Z,921.46
2024-03-29T03:38:07.517Z,921.31
2024-03-29T03:39:07.839Z,921.2
2024-03-29T03:40:08.746Z,921.32
2024-03-29T03:41:09.869Z,921.27
2024-03-29T03:42:10.644Z,921.28
2024-03-29T03:43:11.587Z,921.32
2024-03-29T03:44:12.307Z,921.42
2024-03-29T03:45:12.910Z,921.42
2024-03-29T03:46:13.446Z,921.4
2024-03-29T03:47:13.547Z,921.49
2024-03-29T03:48:14.347Z,921.54
2024-03-29T03:49:14.624Z,921.58
2024-03-29T03:50:15.341Z,921.62
2024-03-29T03:51:15.442Z,921.66
2024-03-29T03:52:16.147Z,921.66
2024-03-29T03:53:16.908Z,921.57
2024-03-29T03:54:17.819Z,921.55
2024-03-29T03:55:18.477Z,921.6
2024-03-29T03:56:19.451Z,921.56
2024-03-29T03:57:20.419Z,921.6
2024-03-29T03:58:21.105Z,921.63
2024-03-29T03:59:22.012Z,921.64
2024-03-29T04:00:22.239Z,921.69
2024-03-29T04:01:22.955Z,921.71
2024-03-29T04:02:23.088Z,921.66
2024-03-29T04:03:23.229Z,921.69
2024-03-29T04:04:23.975Z,921.63
2024-03-29T04:05:24.597Z,921.63
2024-03-29T04:06:25.296Z,921.59
2024-03-29T04:07:25.809Z,921.62
2024-03-29T04:08:26.618Z,921.59
2024-03-29T04:09:27.544Z,921.65
2024-03-29T04:10:27.669Z,921.56
2024-03-29T04:11:28.592Z,921.57
2024-03-29T04:12:28.715Z,921.46
2024-03-29T04:13:29.625Z,921.48
2024-03-29T04:14:30.548Z,921.54
2024-03-29T04:15:31.058Z,921.49
2024-03-29T04:16:31.769Z,921.46
2024-03-29T04:17:32.670Z,921.41
2024-03-29T04:18:33.165Z,921.41
2024-03-29T04:19:33.657Z,921.37
2024-03-29T04:20:34.553Z,921.35
2024-03-29T04:21:35.043Z,921.32
2024-03-29T04:22:35.945Z,921.29
2024-03-29T04:23:36.767Z,921.36
2024-03-29T04:24:37.584Z,921.37
2024-03-29T04:25:37.977Z,921.49
2024-03-29T04:26:38.690Z,921.43
2024-03-29T04:27:38.797Z,921.5
2024-03-29T04:28:39.695Z,921.56
2024-03-29T04:29:40.078Z,921.53
2024-03-29T04:30:41.005Z,921.45
2024-03-29T04:31:41.503Z,921.56
2024-03-29T04:32:42.509Z,921.51
2024-03-29T04:33:43.406Z,921.5
2024-03-29T04:34:44.087Z,921.52
2024-03-29T04:35:44.979Z,921.46
2024-03-29T04:36:45.291Z,921.48
2024-03-29T04:37:46.225Z,921.47
2024-03-29T04:38:46.393Z,921.48
2024-03-29T04:39:47.341Z,921.53
2024-03-29T04:40:48.260Z,921.51
2024-03-29T04:41:49.216Z,921.5
2024-03-29T04:42:50.128Z,921.49
2024-03-29T04:43:50.618Z,921.45
2024-03-29T04:44:51.432Z,921.5
2024-03-29T04:45:51.822Z,921.52
2024-03-29T04:46:52.500Z,921.51
2024-03-29T04:47:53.236Z,921.49
2024-03-29T04:48:53.927Z,921.61
2024-03-29T04:49:54.846Z,921.63
2024-03-29T04:50:55.414Z,921.58
2024-03-29T04:51:56.140Z,921.5
2024-03-29T04:52:56.825Z,921.53
2024-03-29T04:53:57.846Z,921.58
2024-03-29T04:54:58.786Z,921.62
2024-03-29T04:55:59.285Z,921.64
2024-03-29T04:57:00.245Z,921.66
2024-03-29T04:58:00.361Z,921.68
2024-03-29T04:59:00.875Z,921.68
2024-03-29T05:00:01.000Z,921.72
2024-03-29T05:01:01.863Z,921.76
2024-03-29T05:02:02.808Z,921.78
2024-03-29T05:03:03.611Z,921.82
2024-03-29T05:04:04.380Z,921.76
2024-03-29T05:05:04.888Z,921.77
2024-03-29T05:06:05.345Z,921.78
2024-03-29T05:07:06.249Z,921.8
2024-03-29T05:08:07.483Z,921.75
2024-03-29T05:09:07.739Z,921.76
2024-03-29T05:10:08.276Z,921.74
2024-03-29T05:11:09.046Z,921.85
2024-03-29T05:12:09.957Z,921.82
2024-03-29T05:13:10.695Z,921.94
2024-03-29T05:14:10.822Z,921.93
2024-03-29T05:15:11.795Z,921.92
2024-03-29T05:16:12.477Z,921.82
2024-03-29T05:17:12.634Z,921.75
2024-03-29T05:18:13.458Z,921.76
2024-03-29T05:19:13.574Z,921.77
2024-03-29T05:20:14.108Z,921.78
2024-03-29T05:21:15.159Z,921.78
2024-03-29T05:22:16.100Z,921.74
2024-03-29T05:23:16.976Z,921.68
2024-03-29T05:24:17.140Z,921.67
2024-03-29T05:25:18.118Z,921.72
2024-03-29T05:26:18.480Z,921.69
2024-03-29T05:27:19.462Z,921.73
2024-03-29T05:28:20.287Z,921.72
2024-03-29T05:29:20.997Z,921.72
2024-03-29T05:30:21.530Z,921.73
2024-03-29T05:31:22.353Z,921.68
2024-03-29T05:32:22.512Z,921.74
2024-03-29T05:33:23.328Z,921.57
2024-03-29T05:34:24.244Z,921.53
2024-03-29T05:35:24.758Z,921.54
2024-03-29T05:36:25.221Z,921.51
2024-03-29T05:37:26.130Z,921.49
2024-03-29T05:38:26.843Z,921.5
2024-03-29T05:39:27.771Z,921.55
2024-03-29T05:40:28.460Z,921.55
2024-03-29T05:41:28.574Z,921.54
2024-03-29T05:42:29.480Z,921.59
2024-03-29T05:43:30.207Z,921.53
2024-03-29T05:44:31.087Z,921.59
2024-03-29T05:45:32.008Z,921.58
2024-03-29T05:46:32.635Z,921.61
2024-03-29T05:47:33.576Z,921.55
2024-03-29T05:48:34.551Z,921.46
2024-03-29T05:49:35.063Z,921.43
2024-03-29T05:50:35.202Z,921.38
2024-03-29T05:51:36.140Z,921.54
2024-03-29T05:52:37.032Z,921.43
2024-03-29T05:53:37.980Z,921.51
2024-03-29T05:54:38.997Z,921.44
2024-03-29T05:55:39.897Z,921.46
2024-03-29T05:56:40.492Z,921.45
2024-03-29T05:57:40.831Z,921.47
2024-03-29T05:58:41.767Z,921.53
2024-03-29T05:59:42.523Z,921.54
2024-03-29T06:00:43.068Z,921.64
2024-03-29T06:01:43.991Z,921.6
2024-03-29T06:02:44.504Z,921.57
2024-03-29T06:03:45.428Z,921.69
2024-03-29T06:04:46.331Z,921.54
2024-03-29T06:05:47.062Z,921.58
2024-03-29T06:06:47.658Z,921.65
2024-03-29T06:07:47.970Z,921.63
2024-03-29T06:08:48.883Z,921.64
2024-03-29T06:09:49.034Z,921.65
2024-03-29T06:10:49.577Z,921.64
2024-03-29T06:11:50.304Z,921.73
2024-03-29T06:12:51.037Z,921.73
2024-03-29T06:13:51.743Z,921.72
2024-03-29T06:14:52.662Z,921.7
2024-03-29T06:15:53.383Z,921.67
2024-03-29T06:16:53.992Z,921.79
2024-03-29T06:17:54.502Z,921.88
2024-03-29T06:18:54.614Z,921.83
2024-03-29T06:19:54.727Z,921.86
2024-03-29T06:20:55.468Z,921.87
2024-03-29T06:21:55.800Z,921.88
2024-03-29T06:22:56.072Z,921.9
2024-03-29T06:23:57.083Z,921.92
2024-03-29T06:24:57.232Z,922.02
2024-03-29T06:25:58.027Z,922.15
2024-03-29T06:26:58.441Z,922.23
2024-03-29T06:27:59.199Z,921.96
2024-03-29T06:28:59.308Z,922.02
2024-03-29T06:29:59.717Z,921.97
2024-03-29T06:31:00.714Z,922.14
2024-03-29T06:32:01.030Z,922.03
2024-03-29T06:33:01.581Z,921.97
2024-03-29T06:34:01.868Z,922.01
2024-03-29T06:35:02.398Z,922.1
2024-03-29T06:36:02.980Z,922.02
2024-03-29T06:37:03.426Z,922.01
2024-03-29T06:38:04.148Z,921.9
2024-03-29T06:39:05.108Z,921.94
2024-03-29T06:40:05.276Z,922
2024-03-29T06:41:06.040Z,922.01
2024-03-29T06:42:06.695Z,922.03
2024-03-29T06:43:07.686Z,922.15
2024-03-29T06:44:08.450Z,922.1
2024-03-29T06:45:09.090Z,921.98
2024-03-29T06:46:10.039Z,921.99
2024-03-29T06:47:10.388Z,921.96
2024-03-29T06:48:10.730Z,921.99
2024-03-29T06:49:11.229Z,921.96
2024-03-29T06:50:11.352Z,921.98
2024-03-29T06:51:12.406Z,921.95
2024-03-29T06:52:12.601Z,922
2024-03-29T06:53:12.737Z,922.03
2024-03-29T06:54:13.683Z,921.98
2024-03-29T06:55:13.874Z,921.93
2024-03-29T06:56:14.245Z,921.92
2024-03-29T06:57:14.907Z,921.94
2024-03-29T06:58:15.869Z,921.89
2024-03-29T06:59:16.164Z,921.92
2024-03-29T07:00:17.117Z,921.92
2024-03-29T07:01:17.783Z,921.95
2024-03-29T07:02:18.560Z,922.01
2024-03-29T07:03:19.259Z,921.94
2024-03-29T07:04:20.190Z,922.05
2024-03-29T07:05:20.319Z,922.09
2024-03-29T07:06:20.847Z,922.08
2024-03-29T07:07:21.535Z,922.06
2024-03-29T07:08:21.881Z,922.08
2024-03-29T07:09:22.596Z,922.1
2024-03-29T07:10:23.005Z,922.22
2024-03-29T07:11:23.858Z,922.15
2024-03-29T07:12:23.902Z,922.13
2024-03-29T07:13:24.807Z,922.15
2024-03-29T07:14:25.557Z,922.12
2024-03-29T07:15:26.502Z,922.06
2024-03-29T07:16:26.964Z,922.15
2024-03-29T07:17:27.451Z,922.08
2024-03-29T07:18:28.452Z,922.24
2024-03-29T07:19:28.601Z,922.14
2024-03-29T07:20:29.171Z,922.21
2024-03-29T07:21:29.306Z,922.21
2024-03-29T07:22:35.647Z,922.13
2024-03-29T07:23:30.748Z,922.15
2024-03-29T07:24:31.581Z,922.18
2024-03-29T07:25:32.611Z,922.12
2024-03-29T07:26:33.338Z,922.17
2024-03-29T07:27:34.209Z,922.18
2024-03-29T07:28:35.147Z,922.22
2024-03-29T07:29:35.855Z,922.36
2024-03-29T07:30:39.842Z,922.37
2024-03-29T07:31:37.317Z,922.41
2024-03-29T07:32:37.615Z,922.35
2024-03-29T07:33:38.147Z,922.34
2024-03-29T07:34:38.694Z,922.33
2024-03-29T07:35:39.223Z,922.31
2024-03-29T07:36:40.129Z,922.38
2024-03-29T07:37:40.988Z,922.51
2024-03-29T07:38:41.513Z,922.51
2024-03-29T07:39:42.464Z,922.43
2024-03-29T07:40:43.237Z,922.63
2024-03-29T07:41:44.166Z,922.52
2024-03-29T07:42:44.903Z,922.49
2024-03-29T07:43:45.858Z,922.56
2024-03-29T07:44:45.994Z,922.51
2024-03-29T07:45:46.526Z,922.51
2024-03-29T07:46:47.519Z,922.43
2024-03-29T07:47:48.148Z,922.6
2024-03-29T07:48:48.899Z,922.42
2024-03-29T07:49:49.427Z,922.34
2024-03-29T07:50:50.384Z,922.4
2024-03-29T07:51:51.483Z,922.39
2024-03-29T07:52:51.775Z,922.39
2024-03-29T07:53:52.323Z,922.28
2024-03-29T07:54:52.463Z,922.21
2024-03-29T07:55:53.254Z,922.03
2024-03-29T07:56:53.977Z,922.12
2024-03-29T07:57:54.606Z,922.14
2024-03-29T07:58:55.380Z,922.27
2024-03-29T07:59:56.090Z,922.1
2024-03-29T08:00:57.058Z,922.22
2024-03-29T08:01:57.777Z,922.17
2024-03-29T08:02:58.701Z,922.26
2024-03-29T08:03:59.472Z,922.17
2024-03-29T08:05:00.196Z,922.25
2024-03-29T08:06:01.245Z,922.3
2024-03-29T08:07:01.541Z,922.26
2024-03-29T08:08:02.011Z,922.22
2024-03-29T08:09:02.636Z,922.49
2024-03-29T08:10:02.753Z,922.28
2024-03-29T08:11:03.611Z,922.26
2024-03-29T08:12:04.643Z,922.28
2024-03-29T08:13:05.441Z,922.27
2024-03-29T08:14:06.367Z,922.36
2024-03-29T08:15:07.192Z,922.18
2024-03-29T08:16:07.773Z,922.23
2024-03-29T08:17:08.449Z,922.22
2024-03-29T08:18:08.853Z,922.27
2024-03-29T08:19:09.625Z,922.22
2024-03-29T08:20:10.363Z,922.28
2024-03-29T08:21:11.130Z,922.45
2024-03-29T08:22:11.260Z,922.56
2024-03-29T08:23:12.164Z,922.52
2024-03-29T08:24:13.174Z,922.46
2024-03-29T08:25:14.115Z,922.54
2024-03-29T08:26:14.366Z,922.43
2024-03-29T08:27:15.339Z,922.43
2024-03-29T08:28:16.408Z,922.45
2024-03-29T08:29:17.244Z,922.46
2024-03-29T08:30:18.192Z,922.45
2024-03-29T08:31:19.136Z,922.49
2024-03-29T08:32:20.088Z,922.51
2024-03-29T08:33:20.825Z,922.52
2024-03-29T08:34:21.014Z,922.51
2024-03-29T08:35:21.582Z,922.56
2024-03-29T08:36:22.527Z,922.55
2024-03-29T08:37:23.184Z,922.65
2024-03-29T08:38:23.416Z,922.61
2024-03-29T08:39:24.119Z,922.53
2024-03-29T08:40:24.829Z,922.58
2024-03-29T08:41:25.796Z,922.56
2024-03-29T08:42:26.488Z,922.5
2024-03-29T08:43:27.264Z,922.44
2024-03-29T08:44:27.827Z,922.48
2024-03-29T08:45:28.400Z,922.5
2024-03-29T08:46:29.341Z,922.49
2024-03-29T08:47:29.480Z,922.5
2024-03-29T08:48:30.381Z,922.51
2024-03-29T08:49:31.140Z,922.53
2024-03-29T08:50:31.896Z,922.61
2024-03-29T08:51:32.432Z,922.5
2024-03-29T08:52:33.387Z,922.49
2024-03-29T08:53:34.309Z,922.55
2024-03-29T08:54:35.038Z,922.6
2024-03-29T08:55:35.559Z,922.54
2024-03-29T08:56:36.617Z,922.51
2024-03-29T08:57:37.361Z,922.52
2024-03-29T08:58:37.774Z,922.58
2024-03-29T08:59:38.096Z,922.6
2024-03-29T09:00:39.018Z,922.68
2024-03-29T09:01:39.902Z,922.65
2024-03-29T09:02:40.409Z,922.68
2024-03-29T09:03:41.339Z,922.65
2024-03-29T09:04:42.053Z,922.68
2024-03-29T09:05:42.763Z,922.76
2024-03-29T09:06:43.631Z,922.73
2024-03-29T09:07:44.387Z,922.72
2024-03-29T09:08:44.619Z,922.71
2024-03-29T09:09:45.595Z,922.72
2024-03-29T09:10:46.347Z,922.71
2024-03-29T09:11:47.139Z,922.73
2024-03-29T09:12:47.868Z,922.63
2024-03-29T09:13:48.583Z,922.65
2024-03-29T09:14:49.326Z,922.64
2024-03-29T09:15:50.087Z,922.69
2024-03-29T09:16:50.391Z,922.67
2024-03-29T09:17:51.103Z,922.62
2024-03-29T09:18:51.788Z,922.6
2024-03-29T09:19:52.276Z,922.6
2024-03-29T09:20:52.991Z,922.54
2024-03-29T09:21:53.499Z,922.54
2024-03-29T09:22:54.391Z,922.61
2024-03-29T09:23:55.106Z,922.61
2024-03-29T09:24:55.236Z,922.61
2024-03-29T09:25:56.213Z,922.58
2024-03-29T09:26:57.037Z,922.58
2024-03-29T09:27:57.965Z,922.63
2024-03-29T09:28:58.625Z,922.62
2024-03-29T09:29:59.170Z,922.66
2024-03-29T09:30:59.946Z,922.64
2024-03-29T09:32:00.711Z,922.55
2024-03-29T09:33:01.227Z,922.53
2024-03-29T09:34:02.011Z,922.56
2024-03-29T09:35:02.916Z,922.53
2024-03-29T09:36:03.922Z,922.55
2024-03-29T09:37:04.853Z,922.53
2024-03-29T09:38:05.600Z,922.48
2024-03-29T09:39:06.094Z,922.48
2024-03-29T09:40:06.804Z,922.53
2024-03-29T09:41:07.501Z,922.5
2024-03-29T09:42:07.669Z,922.41
2024-03-29T09:43:13.252Z,922.44
2024-03-29T09:44:08.507Z,922.44
2024-03-29T09:45:09.018Z,922.48
2024-03-29T09:46:09.854Z,922.45
2024-03-29T09:47:10.764Z,922.53
2024-03-29T09:48:11.403Z,922.51
2024-03-29T09:49:11.823Z,922.5
2024-03-29T09:50:12.554Z,922.53
2024-03-29T09:51:13.423Z,922.53
2024-03-29T09:52:14.173Z,922.58
2024-03-29T09:53:14.910Z,922.61
2024-03-29T09:54:15.935Z,922.64
2024-03-29T09:55:16.871Z,922.62
2024-03-29T09:56:17.802Z,922.58
2024-03-29T09:57:18.599Z,922.67
2024-03-29T09:58:18.745Z,922.66
2024-03-29T09:59:19.558Z,922.61
2024-03-29T10:00:20.540Z,922.6
2024-03-29T10:01:20.706Z,922.55
2024-03-29T10:02:20.900Z,922.66
2024-03-29T10:03:21.435Z,922.62
2024-03-29T10:04:22.368Z,922.61
2024-03-29T10:05:23.283Z,922.62
2024-03-29T10:06:24.244Z,922.55
2024-03-29T10:07:24.752Z,922.58
2024-03-29T10:08:25.318Z,922.51
2024-03-29T10:09:26.324Z,922.48
2024-03-29T10:10:26.469Z,922.5
2024-03-29T10:11:27.536Z,922.56
2024-03-29T10:12:27.637Z,922.49
2024-03-29T10:13:28.576Z,922.52
2024-03-29T10:14:29.306Z,922.52
2024-03-29T10:15:30.298Z,922.43
2024-03-29T10:16:30.432Z,922.42
2024-03-29T10:17:31.342Z,922.47
2024-03-29T10:18:32.186Z,922.5
2024-03-29T10:19:33.034Z,922.49
2024-03-29T10:20:33.768Z,922.5
2024-03-29T10:21:34.296Z,922.58
2024-03-29T10:22:34.819Z,922.49
2024-03-29T10:23:35.547Z,922.46
2024-03-29T10:24:36.605Z,922.42
2024-03-29T10:25:37.361Z,922.45
2024-03-29T10:26:37.507Z,922.39
2024-03-29T10:27:38.523Z,922.43
2024-03-29T10:28:39.510Z,922.37
2024-03-29T10:29:40.158Z,922.31
2024-03-29T10:30:41.109Z,922.31
2024-03-29T10:31:42.019Z,922.38
2024-03-29T10:32:42.960Z,922.35
2024-03-29T10:33:43.534Z,922.33
2024-03-29T10:34:44.484Z,922.35
2024-03-29T10:35:46.187Z,922.33
2024-03-29T10:36:46.087Z,922.33
2024-03-29T10:37:46.401Z,922.31
2024-03-29T10:38:46.911Z,922.38
2024-03-29T10:39:47.427Z,922.38
2024-03-29T10:40:47.752Z,922.4
2024-03-29T10:41:51.286Z,922.46
2024-03-29T10:42:49.263Z,922.43
2024-03-29T10:43:49.763Z,922.36
2024-03-29T10:44:50.626Z,922.42
2024-03-29T10:45:51.193Z,922.4
2024-03-29T10:46:52.236Z,922.28
2024-03-29T10:47:53.047Z,922.28
2024-03-29T10:48:53.711Z,922.3
2024-03-29T10:49:54.521Z,922.21
2024-03-29T10:50:55.046Z,922.24
2024-03-29T10:51:55.971Z,922.23
2024-03-29T10:52:56.128Z,922.36
2024-03-29T10:53:57.097Z,922.3
2024-03-29T10:54:57.242Z,922.27
2024-03-29T10:55:58.178Z,922.21
2024-03-29T10:56:59.070Z,922.24
2024-03-29T10:58:00.044Z,922.28
2024-03-29T10:59:00.961Z,922.39
2024-03-29T11:00:01.113Z,922.21
2024-03-29T11:01:02.089Z,922.25
2024-03-29T11:02:02.307Z,922.22
2024-03-29T11:03:03.113Z,922.13
2024-03-29T11:04:04.068Z,922.12
2024-03-29T11:05:04.986Z,922.23
2024-03-29T11:06:05.716Z,922.2
2024-03-29T11:07:06.626Z,922.18
2024-03-29T11:08:07.363Z,922.29
2024-03-29T11:09:07.936Z,922.1
2024-03-29T11:10:08.988Z,922.16
2024-03-29T11:11:09.791Z,922.13
2024-03-29T11:12:10.387Z,922.12
2024-03-29T11:13:11.165Z,922.14
2024-03-29T11:14:12.073Z,922.07
2024-03-29T11:15:12.919Z,922.07
2024-03-29T11:16:13.689Z,922.14
2024-03-29T11:17:14.683Z,922.23
2024-03-29T11:18:15.630Z,922.19
2024-03-29T11:19:16.538Z,922.26
2024-03-29T11:20:17.568Z,922.14
2024-03-29T11:21:18.517Z,922.14
2024-03-29T11:22:19.428Z,922.07
2024-03-29T11:23:20.181Z,922.09
2024-03-29T11:24:21.057Z,922.08
2024-03-29T11:25:21.723Z,922.09
2024-03-29T11:26:22.654Z,922.01
2024-03-29T11:27:23.397Z,922.06
2024-03-29T11:28:23.565Z,922.06
2024-03-29T11:29:24.316Z,922.08
2024-03-29T11:30:24.551Z,922.14
2024-03-29T11:31:24.705Z,922.03
2024-03-29T11:32:25.702Z,922.06
2024-03-29T11:33:26.567Z,922.07
2024-03-29T11:34:27.224Z,922.11
2024-03-29T11:35:27.780Z,922.14
2024-03-29T11:36:28.755Z,922.07
2024-03-29T11:37:29.470Z,922.11
2024-03-29T11:38:30.411Z,922.09
2024-03-29T11:39:31.134Z,922.09
2024-03-29T11:40:31.993Z,922.11
2024-03-29T11:41:32.996Z,922.03
2024-03-29T11:42:33.151Z,921.95
2024-03-29T11:43:34.143Z,922.05
2024-03-29T11:44:35.087Z,922
2024-03-29T11:45:35.789Z,921.98
2024-03-29T11:46:36.753Z,922.02
2024-03-29T11:47:37.824Z,922.05
2024-03-29T11:48:38.797Z,922.03
2024-03-29T11:49:39.781Z,922
2024-03-29T11:50:40.843Z,921.97
2024-03-29T11:51:41.764Z,921.94
2024-03-29T11:52:42.676Z,921.88
2024-03-29T11:53:43.409Z,921.76
2024-03-29T11:54:44.149Z,921.8
2024-03-29T11:55:44.288Z,921.73
2024-03-29T11:56:45.321Z,921.86
2024-03-29T11:57:45.609Z,921.82
2024-03-29T11:58:45.804Z,921.81
2024-03-29T11:59:46.714Z,921.93
2024-03-29T12:00:47.571Z,921.83
2024-03-29T12:01:48.107Z,921.9
2024-03-29T12:02:49.047Z,921.78
2024-03-29T12:03:49.642Z,921.82
2024-03-29T12:04:50.163Z,921.81
2024-03-29T12:05:50.893Z,921.78
2024-03-29T12:06:51.422Z,921.84
2024-03-29T12:07:52.178Z,921.81
2024-03-29T12:08:52.716Z,921.86
2024-03-29T12:09:53.633Z,921.85
2024-03-29T12:10:53.838Z,921.75
2024-03-29T12:11:54.776Z,921.75
2024-03-29T12:12:55.713Z,921.71
2024-03-29T12:13:56.735Z,921.71
2024-03-29T12:14:57.730Z,921.86
2024-03-29T12:15:58.456Z,921.81
2024-03-29T12:16:59.273Z,921.8
2024-03-29T12:18:00.215Z,921.71
2024-03-29T12:19:00.707Z,921.6
2024-03-29T12:20:01.224Z,921.67
2024-03-29T12:21:02.308Z,921.68
2024-03-29T12:22:03.065Z,921.71
2024-03-29T12:23:04.001Z,921.68
2024-03-29T12:24:04.777Z,921.67
2024-03-29T12:25:05.714Z,921.66
2024-03-29T12:26:06.612Z,921.67
2024-03-29T12:27:07.358Z,921.69
2024-03-29T12:28:07.862Z,921.66
2024-03-29T12:29:08.853Z,921.75
2024-03-29T12:30:09.705Z,921.64
2024-03-29T12:31:10.547Z,921.69
2024-03-29T12:32:11.284Z,921.62
2024-03-29T12:33:11.627Z,921.69
2024-03-29T12:34:12.379Z,921.68
2024-03-29T12:35:12.936Z,921.62
2024-03-29T12:36:13.728Z,921.65
2024-03-29T12:37:14.634Z,921.65
2024-03-29T12:38:15.377Z,921.63
2024-03-29T12:39:15.890Z,921.71
2024-03-29T12:40:16.038Z,921.71